ALK102 VRMM-VCBI
Flight info
| Callsign | ALK102 |
|---|---|
| Flight time | 1h 6m |
| Altitude | 37000 |
| Route | HOKEY1A HOKEY M512 TELIG LALUM1A |
| Aircraft | A333/H-SDE3GHIJ2J3J5M1RVWXY/LB2D1 |
Departure
| Time | 2026-04-23 18:42 |
|---|---|
| Airport | Velana International Airport (VRMM) |
Arrival
| Time | 2026-04-23 19:48 |
|---|---|
| Airport | Bandaranaike International Colombo Airport (VCBI) |
| Time | Latitude | Longitude | Altitude | Speed | Heading |
|---|---|---|---|---|---|
| 2026-04-23 18:13 | 4.18138 | 73.52765 | 21 ft | 0 kts | 270° |
| 2026-04-23 18:33 | 4.18138 | 73.52777 | 20 ft | 2 kts | 270° |
| 2026-04-23 18:34 | 4.18138 | 73.52796 | 20 ft | 3 kts | 270° |
| 2026-04-23 18:34 | 4.18138 | 73.52816 | 20 ft | 3 kts | 270° |
| 2026-04-23 18:34 | 4.18137 | 73.52837 | 20 ft | 3 kts | 280° |
| 2026-04-23 18:34 | 4.18129 | 73.52855 | 20 ft | 3 kts | 307° |
| 2026-04-23 18:35 | 4.18114 | 73.52869 | 20 ft | 3 kts | 334° |
| 2026-04-23 18:35 | 4.18095 | 73.52874 | 20 ft | 1 kts | 1° |
| 2026-04-23 18:38 | 4.18099 | 73.52875 | 21 ft | 3 kts | 10° |
| 2026-04-23 18:38 | 4.18120 | 73.52894 | 21 ft | 4 kts | 68° |
| 2026-04-23 18:38 | 4.18142 | 73.52920 | 21 ft | 6 kts | 32° |
| 2026-04-23 18:39 | 4.18163 | 73.52931 | 21 ft | 0 kts | 29° |
| 2026-04-23 18:39 | 4.18168 | 73.52934 | 21 ft | 3 kts | 33° |
| 2026-04-23 18:39 | 4.18188 | 73.52955 | 21 ft | 5 kts | 58° |
| 2026-04-23 18:39 | 4.18197 | 73.52986 | 21 ft | 4 kts | 87° |
| 2026-04-23 18:40 | 4.18197 | 73.53016 | 21 ft | 4 kts | 89° |
| 2026-04-23 18:40 | 4.18197 | 73.53051 | 21 ft | 6 kts | 90° |
| 2026-04-23 18:40 | 4.18218 | 73.53090 | 21 ft | 8 kts | 30° |
| 2026-04-23 18:40 | 4.18284 | 73.53101 | 21 ft | 11 kts | 1° |
| 2026-04-23 18:41 | 4.18373 | 73.53101 | 21 ft | 14 kts | 0° |
| 2026-04-23 18:41 | 4.18405 | 73.53101 | 21 ft | 0 kts | 0° |
| 2026-04-23 18:41 | 4.18533 | 73.53102 | 20 ft | 45 kts | 0° |
| 2026-04-23 18:41 | 4.19022 | 73.53101 | 21 ft | 95 kts | 360° |
| 2026-04-23 18:42 | 4.19829 | 73.53101 | 21 ft | 140 kts | 360° |
| 2026-04-23 18:42 | 4.20914 | 73.53102 | 270 ft | 159 kts | 0° |
| 2026-04-23 18:42 | 4.22006 | 73.53112 | 915 ft | 154 kts | 0° |
| 2026-04-23 18:42 | 4.23075 | 73.53117 | 1477 ft | 153 kts | 0° |
| 2026-04-23 18:43 | 4.24163 | 73.53121 | 1904 ft | 165 kts | 0° |
| 2026-04-23 18:43 | 4.25417 | 73.53125 | 2033 ft | 196 kts | 0° |
| 2026-04-23 18:43 | 4.26904 | 73.53130 | 2125 ft | 232 kts | 0° |
| 2026-04-23 18:43 | 4.28637 | 73.53136 | 2460 ft | 256 kts | 0° |
| 2026-04-23 18:44 | 4.30411 | 73.53141 | 3421 ft | 256 kts | 0° |
| 2026-04-23 18:44 | 4.32181 | 73.53149 | 4383 ft | 253 kts | 360° |
| 2026-04-23 18:44 | 4.33949 | 73.53160 | 5258 ft | 256 kts | 359° |
| 2026-04-23 18:44 | 4.35727 | 73.53240 | 6017 ft | 265 kts | 8° |
| 2026-04-23 18:45 | 4.37450 | 73.54025 | 6673 ft | 283 kts | 35° |
| 2026-04-23 18:45 | 4.38711 | 73.55556 | 7474 ft | 290 kts | 61° |
| 2026-04-23 18:45 | 4.39389 | 73.57474 | 8275 ft | 295 kts | 72° |
| 2026-04-23 18:45 | 4.39973 | 73.59462 | 9052 ft | 299 kts | 72° |
| 2026-04-23 18:46 | 4.40556 | 73.61474 | 9839 ft | 302 kts | 72° |
| 2026-04-23 18:46 | 4.41146 | 73.63519 | 10500 ft | 313 kts | 72° |
| 2026-04-23 18:46 | 4.41789 | 73.65707 | 10608 ft | 342 kts | 72° |
| 2026-04-23 18:46 | 4.42511 | 73.68063 | 10923 ft | 360 kts | 72° |
| 2026-04-23 18:47 | 4.43239 | 73.70460 | 11822 ft | 361 kts | 72° |
| 2026-04-23 18:47 | 4.43951 | 73.72892 | 12554 ft | 366 kts | 72° |
| 2026-04-23 18:47 | 4.44664 | 73.75356 | 13324 ft | 370 kts | 73° |
| 2026-04-23 18:47 | 4.45380 | 73.77850 | 14062 ft | 374 kts | 73° |
| 2026-04-23 18:48 | 4.46101 | 73.80369 | 14791 ft | 378 kts | 73° |
| 2026-04-23 18:48 | 4.46829 | 73.82917 | 15503 ft | 383 kts | 73° |
| 2026-04-23 18:48 | 4.47565 | 73.85496 | 16204 ft | 387 kts | 73° |
| 2026-04-23 18:48 | 4.48307 | 73.88101 | 16891 ft | 391 kts | 73° |
| 2026-04-23 18:49 | 4.49057 | 73.90732 | 17563 ft | 395 kts | 73° |
| 2026-04-23 18:49 | 4.49812 | 73.93390 | 18220 ft | 399 kts | 73° |
| 2026-04-23 18:49 | 4.50575 | 73.96073 | 18862 ft | 402 kts | 73° |
| 2026-04-23 18:49 | 4.51344 | 73.98782 | 19489 ft | 406 kts | 73° |
| 2026-04-23 18:50 | 4.51859 | 74.00594 | 19899 ft | 409 kts | 73° |
| 2026-04-23 18:50 | 4.52904 | 74.04280 | 20711 ft | 414 kts | 73° |
| 2026-04-23 18:50 | 4.53693 | 74.07066 | 21296 ft | 417 kts | 73° |
| 2026-04-23 18:50 | 4.54489 | 74.09875 | 21869 ft | 421 kts | 73° |
| 2026-04-23 18:51 | 4.55291 | 74.12707 | 22424 ft | 424 kts | 73° |
| 2026-04-23 18:51 | 4.56097 | 74.15560 | 22966 ft | 427 kts | 73° |
| 2026-04-23 18:51 | 4.56911 | 74.18437 | 23492 ft | 431 kts | 73° |
| 2026-04-23 18:51 | 4.57729 | 74.21337 | 24006 ft | 434 kts | 73° |
| 2026-04-23 18:52 | 4.58554 | 74.24259 | 24506 ft | 437 kts | 73° |
| 2026-04-23 18:52 | 4.59384 | 74.27200 | 24993 ft | 440 kts | 73° |
| 2026-04-23 18:52 | 4.60220 | 74.30165 | 25468 ft | 443 kts | 73° |
| 2026-04-23 18:52 | 4.61060 | 74.33148 | 25933 ft | 446 kts | 73° |
| 2026-04-23 18:53 | 4.61906 | 74.36154 | 26385 ft | 449 kts | 73° |
| 2026-04-23 18:53 | 4.62757 | 74.39178 | 26829 ft | 452 kts | 73° |
| 2026-04-23 18:53 | 4.63613 | 74.42223 | 27258 ft | 455 kts | 73° |
| 2026-04-23 18:53 | 4.64475 | 74.45288 | 27682 ft | 458 kts | 73° |
| 2026-04-23 18:54 | 4.65340 | 74.48369 | 28091 ft | 461 kts | 73° |
| 2026-04-23 18:54 | 4.66212 | 74.51471 | 28493 ft | 464 kts | 73° |
| 2026-04-23 18:54 | 4.67087 | 74.54588 | 28885 ft | 466 kts | 73° |
| 2026-04-23 18:54 | 4.67967 | 74.57727 | 29266 ft | 469 kts | 73° |
| 2026-04-23 18:55 | 4.68840 | 74.60838 | 29638 ft | 471 kts | 73° |
| 2026-04-23 18:55 | 4.69729 | 74.64009 | 30002 ft | 474 kts | 73° |
| 2026-04-23 18:55 | 4.70634 | 74.67240 | 30365 ft | 476 kts | 73° |
| 2026-04-23 18:55 | 4.71521 | 74.70405 | 30711 ft | 479 kts | 73° |
| 2026-04-23 18:56 | 4.72130 | 74.72581 | 30942 ft | 481 kts | 73° |
| 2026-04-23 18:56 | 4.73328 | 74.76863 | 31429 ft | 482 kts | 73° |
| 2026-04-23 18:56 | 4.74232 | 74.80098 | 31904 ft | 481 kts | 73° |
| 2026-04-23 18:56 | 4.75132 | 74.83322 | 32365 ft | 480 kts | 73° |
| 2026-04-23 18:57 | 4.76027 | 74.86537 | 32830 ft | 478 kts | 73° |
| 2026-04-23 18:57 | 4.76919 | 74.89746 | 33254 ft | 477 kts | 73° |
| 2026-04-23 18:57 | 4.77809 | 74.92948 | 33662 ft | 477 kts | 73° |
| 2026-04-23 18:57 | 4.78697 | 74.96146 | 34064 ft | 476 kts | 73° |
| 2026-04-23 18:58 | 4.79583 | 74.99342 | 34457 ft | 475 kts | 73° |
| 2026-04-23 18:58 | 4.80467 | 75.02527 | 34837 ft | 474 kts | 73° |
| 2026-04-23 18:58 | 4.81350 | 75.05711 | 35204 ft | 473 kts | 73° |
| 2026-04-23 18:58 | 4.82231 | 75.08890 | 35563 ft | 473 kts | 73° |
| 2026-04-23 18:59 | 4.83110 | 75.12063 | 35911 ft | 472 kts | 73° |
| 2026-04-23 18:59 | 4.83988 | 75.15229 | 36243 ft | 471 kts | 73° |
| 2026-04-23 18:59 | 4.84866 | 75.18396 | 36542 ft | 471 kts | 73° |
| 2026-04-23 18:59 | 4.85744 | 75.21567 | 36807 ft | 472 kts | 73° |
| 2026-04-23 19:00 | 4.86628 | 75.24752 | 36948 ft | 476 kts | 73° |
| 2026-04-23 19:00 | 4.88415 | 75.31187 | 36993 ft | 481 kts | 73° |
| 2026-04-23 19:01 | 4.89905 | 75.36557 | 36995 ft | 480 kts | 73° |
| 2026-04-23 19:01 | 4.91683 | 75.42975 | 36994 ft | 475 kts | 73° |
| 2026-04-23 19:02 | 4.93438 | 75.49323 | 36994 ft | 470 kts | 73° |
| 2026-04-23 19:02 | 4.95176 | 75.55613 | 36995 ft | 467 kts | 73° |
| 2026-04-23 19:03 | 4.96910 | 75.61888 | 36996 ft | 468 kts | 73° |
| 2026-04-23 19:03 | 4.98655 | 75.68195 | 36997 ft | 471 kts | 73° |
| 2026-04-23 19:04 | 5.00411 | 75.74542 | 36996 ft | 473 kts | 73° |
| 2026-04-23 19:04 | 5.02171 | 75.80908 | 36996 ft | 474 kts | 73° |
| 2026-04-23 19:05 | 5.03930 | 75.87274 | 36995 ft | 473 kts | 73° |
| 2026-04-23 19:05 | 5.05682 | 75.93619 | 36995 ft | 471 kts | 73° |
| 2026-04-23 19:06 | 5.07426 | 75.99941 | 36995 ft | 470 kts | 73° |
| 2026-04-23 19:06 | 5.09170 | 76.06260 | 36996 ft | 470 kts | 73° |
| 2026-04-23 19:07 | 5.10920 | 76.12581 | 36996 ft | 470 kts | 73° |
| 2026-04-23 19:07 | 5.12808 | 76.18815 | 36996 ft | 471 kts | 72° |
| 2026-04-23 19:08 | 5.14735 | 76.25093 | 36996 ft | 471 kts | 72° |
| 2026-04-23 19:08 | 5.16662 | 76.31369 | 36996 ft | 471 kts | 72° |
| 2026-04-23 19:09 | 5.18589 | 76.37642 | 36995 ft | 470 kts | 72° |
| 2026-04-23 19:09 | 5.20513 | 76.43911 | 36996 ft | 470 kts | 72° |
| 2026-04-23 19:10 | 5.22438 | 76.50183 | 36996 ft | 470 kts | 72° |
| 2026-04-23 19:10 | 5.24363 | 76.56453 | 36996 ft | 470 kts | 72° |
| 2026-04-23 19:11 | 5.26288 | 76.62728 | 36996 ft | 470 kts | 72° |
| 2026-04-23 19:11 | 5.28211 | 76.69000 | 36996 ft | 471 kts | 72° |
| 2026-04-23 19:12 | 5.30135 | 76.75277 | 36996 ft | 471 kts | 72° |
| 2026-04-23 19:12 | 5.32058 | 76.81553 | 36996 ft | 470 kts | 72° |
| 2026-04-23 19:13 | 5.33980 | 76.87825 | 36996 ft | 470 kts | 72° |
| 2026-04-23 19:13 | 5.35900 | 76.94097 | 36996 ft | 470 kts | 72° |
| 2026-04-23 19:14 | 5.37821 | 77.00373 | 36996 ft | 470 kts | 72° |
| 2026-04-23 19:14 | 5.39741 | 77.06649 | 36996 ft | 470 kts | 72° |
| 2026-04-23 19:15 | 5.41660 | 77.12926 | 36996 ft | 470 kts | 72° |
| 2026-04-23 19:15 | 5.43579 | 77.19204 | 36996 ft | 470 kts | 72° |
| 2026-04-23 19:16 | 5.45483 | 77.25435 | 36996 ft | 470 kts | 72° |
| 2026-04-23 19:16 | 5.47401 | 77.31716 | 36996 ft | 470 kts | 72° |
| 2026-04-23 19:17 | 5.50275 | 77.41129 | 36996 ft | 470 kts | 72° |
| 2026-04-23 19:17 | 5.52191 | 77.47409 | 36996 ft | 470 kts | 72° |
| 2026-04-23 19:18 | 5.54106 | 77.53689 | 36996 ft | 470 kts | 72° |
| 2026-04-23 19:18 | 5.56020 | 77.59967 | 36996 ft | 470 kts | 72° |
| 2026-04-23 19:19 | 5.58887 | 77.69379 | 36995 ft | 470 kts | 72° |
| 2026-04-23 19:20 | 5.61748 | 77.78774 | 36996 ft | 469 kts | 72° |
| 2026-04-23 19:20 | 5.63655 | 77.85040 | 36996 ft | 469 kts | 72° |
| 2026-04-23 19:21 | 5.66515 | 77.94441 | 36996 ft | 470 kts | 72° |
| 2026-04-23 19:22 | 5.69121 | 78.00419 | 36995 ft | 467 kts | 57° |
| 2026-04-23 19:22 | 5.74945 | 78.08216 | 36996 ft | 465 kts | 50° |
| 2026-04-23 19:23 | 5.78952 | 78.13320 | 36996 ft | 465 kts | 50° |
| 2026-04-23 19:24 | 5.84976 | 78.20966 | 36996 ft | 465 kts | 50° |
| 2026-04-23 19:24 | 5.91007 | 78.28599 | 36996 ft | 465 kts | 50° |
| 2026-04-23 19:25 | 5.99041 | 78.38748 | 36623 ft | 457 kts | 49° |
| 2026-04-23 19:26 | 6.02970 | 78.43707 | 34385 ft | 447 kts | 49° |
| 2026-04-23 19:26 | 6.04877 | 78.46140 | 33257 ft | 439 kts | 51° |
| 2026-04-23 19:27 | 6.08453 | 78.50900 | 31019 ft | 421 kts | 51° |
| 2026-04-23 19:27 | 6.13586 | 78.57757 | 27642 ft | 398 kts | 51° |
| 2026-04-23 19:28 | 6.16861 | 78.62133 | 25477 ft | 383 kts | 51° |
| 2026-04-23 19:28 | 6.20061 | 78.66408 | 24610 ft | 386 kts | 51° |
| 2026-04-23 19:29 | 6.21674 | 78.68563 | 24177 ft | 385 kts | 51° |
| 2026-04-23 19:29 | 6.24883 | 78.72851 | 23312 ft | 382 kts | 51° |
| 2026-04-23 19:30 | 6.28067 | 78.77108 | 22449 ft | 379 kts | 51° |
| 2026-04-23 19:30 | 6.29650 | 78.79223 | 22018 ft | 378 kts | 51° |
| 2026-04-23 19:30 | 6.32800 | 78.83436 | 21067 ft | 378 kts | 51° |
| 2026-04-23 19:31 | 6.34395 | 78.85567 | 20429 ft | 383 kts | 51° |
| 2026-04-23 19:31 | 6.35992 | 78.87703 | 19989 ft | 381 kts | 51° |
| 2026-04-23 19:31 | 6.37582 | 78.89830 | 19548 ft | 380 kts | 51° |
| 2026-04-23 19:31 | 6.39166 | 78.91950 | 19108 ft | 378 kts | 51° |
| 2026-04-23 19:32 | 6.40743 | 78.94060 | 18668 ft | 377 kts | 51° |
| 2026-04-23 19:32 | 6.42293 | 78.96134 | 18234 ft | 375 kts | 51° |
| 2026-04-23 19:32 | 6.43858 | 78.98227 | 17794 ft | 374 kts | 51° |
| 2026-04-23 19:32 | 6.45416 | 79.00313 | 17355 ft | 372 kts | 51° |
| 2026-04-23 19:33 | 6.46969 | 79.02392 | 16916 ft | 371 kts | 51° |
| 2026-04-23 19:33 | 6.48515 | 79.04461 | 16478 ft | 369 kts | 51° |
| 2026-04-23 19:33 | 6.51588 | 79.08577 | 15601 ft | 366 kts | 51° |
| 2026-04-23 19:34 | 6.53115 | 79.10622 | 15163 ft | 365 kts | 51° |
| 2026-04-23 19:34 | 6.54635 | 79.12658 | 14726 ft | 363 kts | 51° |
| 2026-04-23 19:34 | 6.57660 | 79.16710 | 13852 ft | 361 kts | 51° |
| 2026-04-23 19:35 | 6.59160 | 79.18721 | 13417 ft | 359 kts | 51° |
| 2026-04-23 19:35 | 6.60658 | 79.20727 | 12980 ft | 358 kts | 51° |
| 2026-04-23 19:35 | 6.62146 | 79.22722 | 12555 ft | 356 kts | 51° |
| 2026-04-23 19:35 | 6.63626 | 79.24705 | 12140 ft | 354 kts | 51° |
| 2026-04-23 19:36 | 6.65097 | 79.26678 | 11729 ft | 351 kts | 51° |
| 2026-04-23 19:36 | 6.66559 | 79.28637 | 11318 ft | 349 kts | 51° |
| 2026-04-23 19:36 | 6.68011 | 79.30586 | 10913 ft | 347 kts | 51° |
| 2026-04-23 19:36 | 6.69430 | 79.32489 | 10805 ft | 334 kts | 51° |
| 2026-04-23 19:37 | 6.70793 | 79.34320 | 10684 ft | 317 kts | 51° |
| 2026-04-23 19:37 | 6.72084 | 79.36054 | 10302 ft | 304 kts | 51° |
| 2026-04-23 19:37 | 6.73328 | 79.37725 | 9902 ft | 293 kts | 50° |
| 2026-04-23 19:37 | 6.74540 | 79.39351 | 9551 ft | 292 kts | 50° |
| 2026-04-23 19:38 | 6.75761 | 79.40988 | 9188 ft | 292 kts | 50° |
| 2026-04-23 19:38 | 6.76981 | 79.42624 | 8827 ft | 292 kts | 50° |
| 2026-04-23 19:38 | 6.78196 | 79.44255 | 8467 ft | 291 kts | 50° |
| 2026-04-23 19:38 | 6.79409 | 79.45883 | 8108 ft | 290 kts | 50° |
| 2026-04-23 19:39 | 6.80619 | 79.47507 | 7749 ft | 290 kts | 50° |
| 2026-04-23 19:39 | 6.81828 | 79.49129 | 7390 ft | 289 kts | 50° |
| 2026-04-23 19:39 | 6.83034 | 79.50748 | 7032 ft | 288 kts | 51° |
| 2026-04-23 19:39 | 6.84224 | 79.52344 | 6678 ft | 288 kts | 51° |
| 2026-04-23 19:40 | 6.85424 | 79.53956 | 6322 ft | 287 kts | 50° |
| 2026-04-23 19:40 | 6.86614 | 79.55555 | 6043 ft | 283 kts | 50° |
| 2026-04-23 19:40 | 6.87789 | 79.57133 | 5763 ft | 279 kts | 50° |
| 2026-04-23 19:40 | 6.88948 | 79.58689 | 5478 ft | 275 kts | 50° |
| 2026-04-23 19:41 | 6.90083 | 79.60211 | 4966 ft | 268 kts | 51° |
| 2026-04-23 19:41 | 6.91179 | 79.61680 | 4592 ft | 255 kts | 51° |
| 2026-04-23 19:41 | 6.92218 | 79.63074 | 4286 ft | 253 kts | 51° |
| 2026-04-23 19:41 | 6.93277 | 79.64495 | 3968 ft | 253 kts | 52° |
| 2026-04-23 19:42 | 6.94332 | 79.65912 | 3652 ft | 252 kts | 52° |
| 2026-04-23 19:42 | 6.95384 | 79.67324 | 3339 ft | 251 kts | 53° |
| 2026-04-23 19:42 | 6.96431 | 79.68732 | 3044 ft | 250 kts | 53° |
| 2026-04-23 19:42 | 6.97447 | 79.70101 | 2958 ft | 239 kts | 53° |
| 2026-04-23 19:43 | 6.98420 | 79.71411 | 2876 ft | 229 kts | 53° |
| 2026-04-23 19:43 | 6.99354 | 79.72668 | 2793 ft | 219 kts | 53° |
| 2026-04-23 19:43 | 7.00244 | 79.73866 | 2711 ft | 208 kts | 53° |
| 2026-04-23 19:43 | 7.01112 | 79.74967 | 2672 ft | 199 kts | 47° |
| 2026-04-23 19:44 | 7.02122 | 79.75916 | 2668 ft | 199 kts | 40° |
| 2026-04-23 19:44 | 7.03209 | 79.76801 | 2548 ft | 200 kts | 38° |
| 2026-04-23 19:44 | 7.04286 | 79.77646 | 2479 ft | 190 kts | 38° |
| 2026-04-23 19:44 | 7.05292 | 79.78429 | 2419 ft | 176 kts | 38° |
| 2026-04-23 19:45 | 7.06240 | 79.79170 | 2325 ft | 170 kts | 38° |
| 2026-04-23 19:45 | 7.07174 | 79.79892 | 2175 ft | 169 kts | 37° |
| 2026-04-23 19:45 | 7.08102 | 79.80610 | 1955 ft | 167 kts | 38° |
| 2026-04-23 19:45 | 7.08992 | 79.81301 | 1743 ft | 156 kts | 38° |
| 2026-04-23 19:46 | 7.09810 | 79.81935 | 1660 ft | 143 kts | 38° |
| 2026-04-23 19:46 | 7.10597 | 79.82545 | 1596 ft | 145 kts | 37° |
| 2026-04-23 19:46 | 7.11409 | 79.83169 | 1457 ft | 146 kts | 37° |
| 2026-04-23 19:46 | 7.12207 | 79.83793 | 1267 ft | 144 kts | 38° |
| 2026-04-23 19:47 | 7.12734 | 79.84203 | 1124 ft | 143 kts | 37° |
| 2026-04-23 19:47 | 7.13768 | 79.85013 | 851 ft | 139 kts | 38° |
| 2026-04-23 19:47 | 7.14536 | 79.85608 | 670 ft | 140 kts | 37° |
| 2026-04-23 19:47 | 7.15312 | 79.86205 | 473 ft | 140 kts | 38° |
| 2026-04-23 19:48 | 7.16079 | 79.86804 | 283 ft | 139 kts | 38° |
| 2026-04-23 19:48 | 7.16844 | 79.87397 | 107 ft | 138 kts | 37° |
| 2026-04-23 19:48 | 7.17566 | 79.87957 | 47 ft | 111 kts | 35° |
| 2026-04-23 19:48 | 7.17994 | 79.88287 | 46 ft | 48 kts | 38° |
| 2026-04-23 19:49 | 7.18121 | 79.88384 | 46 ft | 21 kts | 37° |
| 2026-04-23 19:49 | 7.18225 | 79.88465 | 46 ft | 18 kts | 38° |
| 2026-04-23 19:49 | 7.18322 | 79.88540 | 46 ft | 18 kts | 38° |
| 2026-04-23 19:49 | 7.18418 | 79.88615 | 46 ft | 17 kts | 38° |
| 2026-04-23 19:50 | 7.18515 | 79.88690 | 46 ft | 21 kts | 37° |
| 2026-04-23 19:50 | 7.18642 | 79.88789 | 46 ft | 23 kts | 38° |
| 2026-04-23 19:50 | 7.18685 | 79.88832 | 46 ft | 6 kts | 67° |
| 2026-04-23 19:50 | 7.18683 | 79.88870 | 46 ft | 6 kts | 114° |
| 2026-04-23 19:51 | 7.18661 | 79.88901 | 46 ft | 5 kts | 128° |
| 2026-04-23 19:51 | 7.18630 | 79.88940 | 46 ft | 8 kts | 132° |
| 2026-04-23 19:51 | 7.18585 | 79.88966 | 46 ft | 7 kts | 183° |
| 2026-04-23 19:51 | 7.18544 | 79.88941 | 46 ft | 7 kts | 218° |
| 2026-04-23 19:52 | 7.18496 | 79.88903 | 46 ft | 10 kts | 218° |
| 2026-04-23 19:52 | 7.18434 | 79.88855 | 46 ft | 13 kts | 217° |
| 2026-04-23 19:52 | 7.18362 | 79.88799 | 46 ft | 13 kts | 217° |
| 2026-04-23 19:52 | 7.18293 | 79.88745 | 46 ft | 14 kts | 217° |
| 2026-04-23 19:53 | 7.18209 | 79.88681 | 46 ft | 15 kts | 218° |
| 2026-04-23 19:53 | 7.18127 | 79.88616 | 46 ft | 15 kts | 218° |
| 2026-04-23 19:53 | 7.18037 | 79.88547 | 46 ft | 19 kts | 217° |
| 2026-04-23 19:53 | 7.17934 | 79.88467 | 46 ft | 18 kts | 218° |
| 2026-04-23 19:54 | 7.17836 | 79.88391 | 46 ft | 17 kts | 218° |
| 2026-04-23 19:54 | 7.17744 | 79.88320 | 46 ft | 16 kts | 218° |
| 2026-04-23 19:54 | 7.17658 | 79.88253 | 46 ft | 15 kts | 218° |
| 2026-04-23 19:54 | 7.17578 | 79.88190 | 46 ft | 14 kts | 218° |
| 2026-04-23 19:55 | 7.17503 | 79.88132 | 46 ft | 13 kts | 218° |
| 2026-04-23 19:55 | 7.17440 | 79.88084 | 46 ft | 7 kts | 217° |
| 2026-04-23 19:55 | 7.17405 | 79.88075 | 46 ft | 5 kts | 170° |
| 2026-04-23 19:55 | 7.17376 | 79.88097 | 46 ft | 7 kts | 130° |
| 2026-04-23 19:56 | 7.17347 | 79.88134 | 46 ft | 7 kts | 128° |
| 2026-04-23 19:56 | 7.17321 | 79.88168 | 46 ft | 5 kts | 128° |
| 2026-04-23 19:56 | 7.17316 | 79.88190 | 46 ft | 3 kts | 70° |
| 2026-04-23 19:56 | 7.17328 | 79.88205 | 46 ft | 3 kts | 45° |
| 2026-04-23 19:57 | 7.17350 | 79.88223 | 46 ft | 5 kts | 38° |
| 2026-04-23 19:57 | 7.17362 | 79.88233 | 46 ft | 0 kts | 38° |
| 2026-04-23 19:57 | 7.17363 | 79.88233 | 46 ft | 0 kts | 38° |